createdAt,value
2018-02-11T00:01:10.979Z,2.70
2018-02-11T00:03:39.404Z,2.30
2018-02-11T00:06:07.800Z,2.50
2018-02-11T00:08:37.205Z,1.60
2018-02-11T00:11:06.615Z,1.83
2018-02-11T00:13:35.009Z,1.37
2018-02-11T00:16:03.374Z,1.40
2018-02-11T00:18:31.838Z,2.00
2018-02-11T00:21:00.417Z,1.47
2018-02-11T00:23:28.781Z,1.80
2018-02-11T00:25:57.149Z,1.50
2018-02-11T00:28:25.550Z,1.83
2018-02-11T00:30:53.924Z,2.27
2018-02-11T00:33:22.289Z,1.83
2018-02-11T00:35:50.677Z,1.37
2018-02-11T00:38:19.062Z,1.30
2018-02-11T00:40:47.535Z,2.00
2018-02-11T00:43:15.912Z,2.23
2018-02-11T00:45:45.313Z,1.73
2018-02-11T00:48:15.570Z,1.70
2018-02-11T00:50:43.965Z,1.23
2018-02-11T00:53:12.340Z,0.93
2018-02-11T00:55:40.728Z,0.97
2018-02-11T00:58:09.877Z,1.53
2018-02-11T01:00:39.394Z,1.57
2018-02-11T01:03:07.785Z,1.70
2018-02-11T01:05:36.159Z,1.63
2018-02-11T01:08:05.557Z,1.37
2018-02-11T01:10:33.945Z,1.50
2018-02-11T01:13:02.320Z,2.07
2018-02-11T01:15:30.964Z,1.50
2018-02-11T01:17:59.364Z,1.47
2018-02-11T01:20:27.792Z,1.53
2018-02-11T01:22:56.936Z,1.83
2018-02-11T01:25:25.334Z,2.10
2018-02-11T01:27:53.719Z,1.60
2018-02-11T01:30:22.087Z,1.43
2018-02-11T01:32:50.482Z,1.27
2018-02-11T01:35:19.241Z,2.10
2018-02-11T01:37:47.618Z,1.70
2018-02-11T01:40:16.760Z,1.10
2018-02-11T01:42:45.908Z,1.77
2018-02-11T01:45:15.052Z,1.43
2018-02-11T01:47:44.197Z,1.07
2018-02-11T01:50:15.667Z,2.27
2018-02-11T01:52:44.072Z,1.80
2018-02-11T01:55:13.215Z,1.00
2018-02-11T01:57:42.360Z,1.63
2018-02-11T02:00:10.740Z,1.53
2018-02-11T02:02:40.356Z,1.10
2018-02-11T02:05:09.855Z,1.13
2018-02-11T02:07:39.259Z,1.70
2018-02-11T02:10:07.643Z,0.90
2018-02-11T02:12:36.785Z,1.50
2018-02-11T02:15:05.180Z,1.60
2018-02-11T02:17:33.596Z,1.33
2018-02-11T02:20:01.664Z,0.90
2018-02-11T02:22:30.024Z,1.50
2018-02-11T02:24:58.400Z,0.73
2018-02-11T02:27:26.779Z,1.37
2018-02-11T02:29:55.157Z,0.70
2018-02-11T02:32:23.529Z,1.10
2018-02-11T02:34:51.908Z,1.63
2018-02-11T02:37:20.279Z,1.17
2018-02-11T02:39:48.675Z,1.57
2018-02-11T02:42:17.071Z,1.57
2018-02-11T02:44:45.644Z,0.87
2018-02-11T02:47:14.092Z,1.23
2018-02-11T02:49:42.481Z,1.50
2018-02-11T02:52:10.856Z,1.13
2018-02-11T02:54:39.239Z,1.27
2018-02-11T02:57:07.604Z,0.83
2018-02-11T02:59:35.960Z,1.10
2018-02-11T03:02:04.342Z,0.97
2018-02-11T03:04:32.525Z,1.73
2018-02-11T03:07:00.902Z,1.23
2018-02-11T03:09:29.281Z,1.40
2018-02-11T03:11:57.675Z,0.80
2018-02-11T03:14:26.062Z,1.37
2018-02-11T03:16:54.442Z,0.87
2018-02-11T03:19:23.945Z,1.30
2018-02-11T03:21:52.325Z,1.20
2018-02-11T03:24:20.692Z,1.07
2018-02-11T03:26:49.089Z,1.00
2018-02-11T03:29:17.447Z,1.23
2018-02-11T03:31:45.821Z,1.10
2018-02-11T03:34:14.198Z,0.80
2018-02-11T03:36:42.572Z,0.80
2018-02-11T03:39:10.954Z,0.57
2018-02-11T03:41:39.345Z,0.60
2018-02-11T03:44:07.723Z,0.80
2018-02-11T03:46:36.094Z,0.60
2018-02-11T03:49:04.146Z,0.77
2018-02-11T03:51:32.518Z,0.63
2018-02-11T03:54:00.909Z,0.60
2018-02-11T03:56:29.282Z,0.40
2018-02-11T03:58:57.667Z,0.80
2018-02-11T04:01:26.048Z,0.70
2018-02-11T04:03:54.421Z,0.80
2018-02-11T04:06:22.792Z,0.40
2018-02-11T04:08:51.181Z,0.50
2018-02-11T04:11:19.612Z,0.50
2018-02-11T04:13:48.761Z,0.80
2018-02-11T04:16:17.151Z,0.47
2018-02-11T04:18:45.524Z,0.67
2018-02-11T04:21:13.892Z,0.60
2018-02-11T04:23:42.294Z,0.60
2018-02-11T04:26:10.668Z,0.60
2018-02-11T04:28:39.026Z,0.70
2018-02-11T04:31:07.422Z,0.70
2018-02-11T04:33:35.792Z,0.47
2018-02-11T04:36:04.182Z,0.60
2018-02-11T04:38:32.549Z,0.30
2018-02-11T04:41:00.927Z,0.57
2018-02-11T04:43:29.287Z,0.57
2018-02-11T04:45:57.660Z,0.60
2018-02-11T04:48:26.029Z,0.30
2018-02-11T04:50:54.407Z,0.70
2018-02-11T04:53:22.763Z,0.30
2018-02-11T04:55:51.904Z,0.43
2018-02-11T04:58:20.265Z,0.30
2018-02-11T05:00:48.646Z,0.40
2018-02-11T05:03:17.023Z,0.40
2018-02-11T05:05:45.499Z,0.40
2018-02-11T05:08:13.855Z,0.40
2018-02-11T05:10:42.214Z,0.50
2018-02-11T05:13:11.364Z,0.80
2018-02-11T05:15:40.487Z,0.30
2018-02-11T05:18:08.859Z,0.50
2018-02-11T05:20:37.244Z,0.80
2018-02-11T05:23:06.184Z,0.50
2018-02-11T05:25:34.559Z,0.50
2018-02-11T05:28:02.943Z,0.50
2018-02-11T05:30:31.315Z,0.30
2018-02-11T05:32:59.696Z,0.37
2018-02-11T05:35:28.057Z,0.40
2018-02-11T05:37:57.195Z,0.30
2018-02-11T05:40:25.558Z,0.30
2018-02-11T05:42:53.932Z,0.30
2018-02-11T05:45:22.417Z,0.20
2018-02-11T05:47:50.812Z,0.30
2018-02-11T05:50:19.172Z,0.30
2018-02-11T05:52:47.934Z,0.30
2018-02-11T05:55:16.336Z,0.40
2018-02-11T05:57:44.715Z,0.30
2018-02-11T06:00:13.095Z,0.30
2018-02-11T06:02:41.456Z,0.30
2018-02-11T06:05:09.827Z,0.30
2018-02-11T06:07:38.187Z,0.40
2018-02-11T06:10:07.704Z,0.40
2018-02-11T06:12:36.843Z,0.40
2018-02-11T06:15:05.219Z,0.30
2018-02-11T06:17:33.588Z,0.30
2018-02-11T06:20:02.007Z,0.30
2018-02-11T06:22:30.383Z,0.40
2018-02-11T06:24:58.955Z,0.53
2018-02-11T06:27:27.387Z,0.30
2018-02-11T06:29:55.768Z,0.30
2018-02-11T06:32:24.133Z,0.30
2018-02-11T06:34:52.737Z,0.30
2018-02-11T06:37:22.619Z,0.30
2018-02-11T06:39:51.010Z,0.20
2018-02-11T06:42:20.139Z,0.33
2018-02-11T06:44:48.505Z,0.30
2018-02-11T06:47:16.970Z,0.30
2018-02-11T06:49:46.115Z,0.43
2018-02-11T06:52:14.512Z,0.50
2018-02-11T06:54:42.880Z,0.30
2018-02-11T06:57:11.246Z,0.60
2018-02-11T06:59:39.616Z,0.30
2018-02-11T07:02:07.994Z,0.20
2018-02-11T07:04:36.370Z,0.20
2018-02-11T07:07:04.743Z,0.40
2018-02-11T07:09:33.107Z,0.70
2018-02-11T07:12:01.485Z,0.43
2018-02-11T07:14:29.849Z,0.30
2018-02-11T07:16:58.237Z,0.60
2018-02-11T07:19:26.607Z,0.40
2018-02-11T07:21:54.998Z,0.27
2018-02-11T07:24:23.371Z,0.30
2018-02-11T07:26:51.818Z,0.30
2018-02-11T07:29:20.188Z,0.30
2018-02-11T07:31:48.553Z,0.40
2018-02-11T07:34:16.965Z,0.43
2018-02-11T07:36:46.613Z,0.60
2018-02-11T07:39:14.987Z,0.53
2018-02-11T07:41:43.162Z,0.57
2018-02-11T07:44:11.545Z,0.87
2018-02-11T07:46:39.909Z,0.50
2018-02-11T07:49:08.296Z,0.50
2018-02-11T07:51:36.673Z,0.50
2018-02-11T07:54:05.067Z,0.70
2018-02-11T07:56:33.448Z,0.50
2018-02-11T07:59:01.602Z,0.30
2018-02-11T08:01:29.975Z,1.40
2018-02-11T08:03:58.358Z,0.50
2018-02-11T08:06:26.744Z,0.67
2018-02-11T08:08:57.059Z,0.77
2018-02-11T08:11:25.464Z,0.80
2018-02-11T08:13:53.837Z,0.90
2018-02-11T08:16:22.257Z,0.90
2018-02-11T08:18:51.394Z,0.93
2018-02-11T08:21:19.776Z,0.90
2018-02-11T08:23:48.603Z,0.60
2018-02-11T08:26:17.043Z,0.83
2018-02-11T08:28:45.432Z,0.70
2018-02-11T08:31:14.012Z,1.47
2018-02-11T08:33:42.419Z,1.10
2018-02-11T08:36:10.824Z,1.30
2018-02-11T08:38:40.050Z,1.27
2018-02-11T08:41:08.433Z,0.93
2018-02-11T08:43:36.812Z,1.63
2018-02-11T08:46:05.190Z,1.20
2018-02-11T08:48:33.578Z,1.60
2018-02-11T08:51:01.953Z,1.73
2018-02-11T08:53:30.332Z,2.90
2018-02-11T08:55:58.770Z,0.60
2018-02-11T08:58:27.903Z,1.30
2018-02-11T09:00:56.279Z,1.50
2018-02-11T09:03:24.871Z,2.17
2018-02-11T09:05:53.223Z,1.70
2018-02-11T09:08:21.605Z,1.17
2018-02-11T09:10:49.982Z,1.10
2018-02-11T09:13:18.375Z,0.87
2018-02-11T09:15:46.743Z,1.70
2018-02-11T09:18:15.127Z,2.03
2018-02-11T09:20:43.496Z,2.03
2018-02-11T09:23:11.863Z,2.00
2018-02-11T09:25:40.257Z,1.83
2018-02-11T09:28:08.705Z,0.80
2018-02-11T09:30:37.841Z,1.57
2018-02-11T09:33:06.427Z,2.60
2018-02-11T09:35:34.811Z,1.50
2018-02-11T09:38:03.185Z,1.00
2018-02-11T09:40:31.635Z,1.77
2018-02-11T09:42:59.998Z,2.10
2018-02-11T09:45:29.138Z,1.00
2018-02-11T09:47:57.499Z,1.93
2018-02-11T09:50:25.875Z,2.50
2018-02-11T09:52:54.267Z,1.50
2018-02-11T09:55:22.660Z,2.13
2018-02-11T09:57:53.039Z,2.27
2018-02-11T10:00:22.294Z,2.30
2018-02-11T10:02:51.439Z,1.47
2018-02-11T10:05:20.579Z,0.53
2018-02-11T10:07:48.956Z,3.53
2018-02-11T10:10:17.316Z,2.07
2018-02-11T10:12:45.757Z,2.27
2018-02-11T10:15:15.039Z,2.13
2018-02-11T10:17:43.558Z,2.33
2018-02-11T10:20:11.925Z,2.77
2018-02-11T10:22:41.069Z,3.00
2018-02-11T10:25:09.433Z,1.80
2018-02-11T10:27:37.823Z,3.00
2018-02-11T10:30:06.192Z,2.40
2018-02-11T10:32:34.596Z,3.97
2018-02-11T10:35:02.982Z,3.53
2018-02-11T10:37:31.457Z,2.80
2018-02-11T10:39:59.845Z,2.50
2018-02-11T10:42:28.980Z,4.30
2018-02-11T10:44:57.395Z,2.80
2018-02-11T10:47:25.813Z,3.10
2018-02-11T10:49:54.312Z,2.30
2018-02-11T10:52:22.735Z,2.57
2018-02-11T10:54:51.108Z,2.90
2018-02-11T10:57:19.482Z,2.77
2018-02-11T10:59:47.866Z,1.83
2018-02-11T11:02:16.236Z,2.70
2018-02-11T11:04:44.596Z,1.97
2018-02-11T11:07:13.009Z,2.90
2018-02-11T11:09:41.373Z,3.83
2018-02-11T11:12:09.744Z,3.10
2018-02-11T11:14:38.118Z,3.40
2018-02-11T11:17:06.710Z,2.87
2018-02-11T11:19:35.087Z,2.93
2018-02-11T11:22:03.460Z,3.03
2018-02-11T11:24:31.876Z,3.70
2018-02-11T11:27:00.239Z,1.70
2018-02-11T11:29:28.650Z,2.77
2018-02-11T11:31:57.796Z,2.60
2018-02-11T11:34:26.199Z,3.90
2018-02-11T11:36:54.575Z,3.07
2018-02-11T11:39:22.952Z,4.77
2018-02-11T11:41:51.331Z,2.77
2018-02-11T11:44:20.470Z,3.10
2018-02-11T11:46:49.820Z,4.90
2018-02-11T11:49:18.204Z,2.77
2018-02-11T11:51:46.576Z,4.27
2018-02-11T11:54:14.967Z,2.57
2018-02-11T11:56:43.404Z,3.27
2018-02-11T11:59:11.905Z,3.57
2018-02-11T12:01:40.459Z,3.50
2018-02-11T12:04:08.826Z,1.93
2018-02-11T12:06:38.005Z,3.70
2018-02-11T12:09:06.040Z,3.33
2018-02-11T12:11:34.416Z,5.10
2018-02-11T12:14:02.782Z,2.40
2018-02-11T12:16:31.175Z,3.10
2018-02-11T12:18:59.556Z,3.00
2018-02-11T12:21:27.940Z,2.70
2018-02-11T12:23:56.321Z,3.70
2018-02-11T12:26:24.710Z,3.40
2018-02-11T12:28:53.149Z,3.73
2018-02-11T12:31:21.535Z,3.10
2018-02-11T12:33:50.086Z,2.80
2018-02-11T12:36:18.443Z,1.90
2018-02-11T12:38:47.573Z,2.47
2018-02-11T12:41:15.946Z,2.00
2018-02-11T12:43:44.437Z,3.00
2018-02-11T12:46:12.842Z,2.40
2018-02-11T12:48:40.948Z,1.77
2018-02-11T12:51:09.880Z,2.70
2018-02-11T12:53:38.391Z,2.47
2018-02-11T12:56:06.780Z,2.77
2018-02-11T12:58:35.348Z,2.30
2018-02-11T13:01:04.485Z,1.90
2018-02-11T13:03:33.640Z,3.03
2018-02-11T13:06:01.996Z,2.40
2018-02-11T13:08:30.381Z,3.37
2018-02-11T13:10:59.027Z,2.70
2018-02-11T13:13:28.183Z,2.60
2018-02-11T13:15:56.594Z,2.80
2018-02-11T13:18:25.736Z,2.00
2018-02-11T13:20:54.156Z,3.20
2018-02-11T13:23:22.870Z,2.50
2018-02-11T13:25:51.561Z,4.00
2018-02-11T13:28:19.939Z,3.63
2018-02-11T13:30:48.301Z,2.73
2018-02-11T13:33:17.500Z,3.43
2018-02-11T13:35:46.653Z,3.20
2018-02-11T13:38:15.042Z,3.83
2018-02-11T13:40:43.460Z,3.57
2018-02-11T13:43:12.630Z,4.63
2018-02-11T13:45:41.092Z,3.57
2018-02-11T13:48:09.472Z,4.40
2018-02-11T13:50:37.861Z,2.93
2018-02-11T13:53:06.244Z,3.10
2018-02-11T13:55:34.631Z,3.90
2018-02-11T13:58:03.767Z,3.37
2018-02-11T14:00:32.174Z,3.17
2018-02-11T14:03:02.079Z,3.00
2018-02-11T14:05:30.519Z,3.17
2018-02-11T14:08:00.420Z,2.80
2018-02-11T14:10:28.524Z,2.33
2018-02-11T14:12:56.903Z,2.20
2018-02-11T14:15:25.281Z,2.43
2018-02-11T14:17:53.942Z,3.23
2018-02-11T14:20:23.070Z,2.50
2018-02-11T14:22:51.467Z,2.30
2018-02-11T14:25:19.853Z,2.83
2018-02-11T14:27:48.272Z,2.50
2018-02-11T14:30:16.800Z,2.60
2018-02-11T14:32:45.156Z,2.50
2018-02-11T14:35:13.536Z,3.23
2018-02-11T14:37:41.912Z,2.07
2018-02-11T14:40:10.287Z,2.20
2018-02-11T14:42:38.678Z,2.60
2018-02-11T14:45:07.043Z,2.93
2018-02-11T14:47:35.426Z,2.80
2018-02-11T14:50:03.834Z,2.87
2018-02-11T14:52:32.701Z,2.20
2018-02-11T14:55:01.179Z,2.37
2018-02-11T14:57:29.553Z,2.87
2018-02-11T14:59:57.931Z,2.30
2018-02-11T15:02:26.292Z,3.40
2018-02-11T15:04:54.703Z,2.50
2018-02-11T15:07:23.855Z,2.43
2018-02-11T15:09:53.015Z,2.90
2018-02-11T15:12:21.370Z,2.53
2018-02-11T15:14:49.747Z,2.10
2018-02-11T15:17:17.783Z,2.20
2018-02-11T15:19:46.158Z,2.63
2018-02-11T15:22:15.295Z,2.47
2018-02-11T15:24:43.664Z,3.20
2018-02-11T15:27:12.112Z,2.30
2018-02-11T15:29:40.483Z,2.00
2018-02-11T15:32:09.608Z,1.90
2018-02-11T15:34:38.742Z,2.73
2018-02-11T15:37:07.908Z,2.30
2018-02-11T15:39:36.368Z,2.10
2018-02-11T15:42:04.737Z,3.67
2018-02-11T15:44:33.174Z,2.20
2018-02-11T15:47:02.291Z,2.37
2018-02-11T15:49:30.655Z,2.50
2018-02-11T15:51:59.047Z,2.40
2018-02-11T15:54:28.174Z,2.47
2018-02-11T15:56:56.548Z,3.00
2018-02-11T15:59:24.933Z,1.63
2018-02-11T16:01:53.380Z,2.90
2018-02-11T16:04:21.739Z,2.33
2018-02-11T16:06:50.144Z,2.57
2018-02-11T16:09:19.283Z,1.97
2018-02-11T16:11:47.659Z,2.80
2018-02-11T16:14:16.035Z,2.80
2018-02-11T16:16:44.404Z,2.13
2018-02-11T16:19:12.787Z,3.00
2018-02-11T16:21:41.146Z,2.43
2018-02-11T16:24:09.509Z,1.80
2018-02-11T16:26:38.684Z,2.40
2018-02-11T16:29:07.085Z,3.03
2018-02-11T16:31:36.239Z,2.40
2018-02-11T16:34:04.625Z,2.50
2018-02-11T16:36:33.019Z,3.60
2018-02-11T16:39:01.379Z,2.40
2018-02-11T16:41:29.809Z,2.00
2018-02-11T16:43:58.192Z,2.80
2018-02-11T16:46:26.559Z,3.40
2018-02-11T16:48:55.699Z,2.10
2018-02-11T16:51:24.070Z,2.40
2018-02-11T16:53:52.448Z,2.80
2018-02-11T16:56:20.854Z,2.93
2018-02-11T16:58:49.258Z,2.33
2018-02-11T17:01:18.498Z,2.23
2018-02-11T17:03:46.890Z,2.07
2018-02-11T17:06:15.288Z,2.00
2018-02-11T17:08:43.660Z,3.00
2018-02-11T17:11:12.084Z,3.57
2018-02-11T17:13:40.462Z,2.47
2018-02-11T17:16:09.163Z,2.90
2018-02-11T17:18:37.346Z,2.50
2018-02-11T17:21:05.733Z,2.30
2018-02-11T17:23:34.115Z,2.73
2018-02-11T17:26:02.489Z,1.80
2018-02-11T17:28:30.888Z,4.00
2018-02-11T17:30:59.300Z,2.13
2018-02-11T17:33:28.654Z,1.87
2018-02-11T17:35:57.035Z,2.30
2018-02-11T17:38:25.401Z,1.77
2018-02-11T17:40:53.801Z,2.93
2018-02-11T17:43:22.181Z,1.60
2018-02-11T17:48:26.387Z,2.47
2018-02-11T17:50:54.767Z,1.83
2018-02-11T17:53:23.177Z,2.37
2018-02-11T17:55:51.566Z,2.80
2018-02-11T17:58:20.796Z,2.07
2018-02-11T18:00:49.191Z,1.90
2018-02-11T18:03:17.560Z,2.60
2018-02-11T18:05:45.926Z,2.70
2018-02-11T18:08:14.331Z,2.23
2018-02-11T18:10:42.739Z,1.90
2018-02-11T18:13:12.612Z,2.03
2018-02-11T18:15:40.981Z,2.67
2018-02-11T18:18:09.351Z,3.40
2018-02-11T18:20:38.653Z,2.10
2018-02-11T18:23:07.109Z,3.00
2018-02-11T18:25:36.693Z,2.43
2018-02-11T18:28:05.053Z,2.23
2018-02-11T18:30:33.465Z,2.63
2018-02-11T18:33:01.908Z,2.03
2018-02-11T18:35:30.304Z,1.73
2018-02-11T18:37:58.689Z,1.93
2018-02-11T18:40:27.064Z,1.47
2018-02-11T18:42:55.615Z,1.47
2018-02-11T18:45:24.031Z,1.60
2018-02-11T18:47:52.415Z,2.20
2018-02-11T18:50:20.819Z,1.97
2018-02-11T18:52:49.265Z,1.87
2018-02-11T18:55:17.646Z,2.00
2018-02-11T18:57:46.022Z,1.53
2018-02-11T19:00:14.547Z,1.50
2018-02-11T19:02:42.938Z,1.63
2018-02-11T19:05:11.781Z,1.80
2018-02-11T19:07:40.221Z,1.40
2018-02-11T19:10:08.607Z,1.90
2018-02-11T19:12:37.141Z,1.47
2018-02-11T19:15:06.280Z,1.90
2018-02-11T19:17:34.748Z,2.03
2018-02-11T19:20:03.132Z,1.53
2018-02-11T19:22:31.542Z,1.50
2018-02-11T19:25:00.834Z,1.50
2018-02-11T19:27:29.519Z,2.50
2018-02-11T19:29:58.040Z,1.60
2018-02-11T19:32:26.440Z,1.33
2018-02-11T19:34:55.269Z,1.67
2018-02-11T19:37:23.878Z,0.73
2018-02-11T19:39:52.279Z,1.20
2018-02-11T19:42:20.660Z,1.13
2018-02-11T19:44:52.047Z,0.80
2018-02-11T19:47:20.448Z,1.97
2018-02-11T19:49:48.950Z,1.83
2018-02-11T19:52:18.222Z,1.10
2018-02-11T19:54:46.588Z,1.13
2018-02-11T19:57:14.972Z,1.10
2018-02-11T19:59:43.383Z,0.77
2018-02-11T20:02:12.578Z,2.43
2018-02-11T20:04:41.813Z,1.00
2018-02-11T20:07:10.234Z,1.43
2018-02-11T20:09:38.434Z,2.07
2018-02-11T20:12:07.567Z,1.00
2018-02-11T20:14:35.756Z,1.43
2018-02-11T20:17:04.299Z,1.47
2018-02-11T20:19:32.743Z,2.00
2018-02-11T20:22:01.148Z,0.97
2018-02-11T20:24:30.374Z,1.03
2018-02-11T20:26:58.772Z,1.77
2018-02-11T20:29:28.202Z,1.47
2018-02-11T20:31:57.583Z,1.03
2018-02-11T20:34:26.036Z,1.20
2018-02-11T20:36:54.491Z,1.80
2018-02-11T20:39:24.026Z,1.97
2018-02-11T20:41:52.422Z,0.97
2018-02-11T20:44:20.807Z,1.17
2018-02-11T20:46:49.278Z,1.67
2018-02-11T20:49:17.659Z,0.70
2018-02-11T20:51:46.913Z,1.50
2018-02-11T20:54:16.056Z,1.57
2018-02-11T20:56:44.473Z,1.00
2018-02-11T20:59:12.851Z,1.30
2018-02-11T21:01:42.051Z,1.20
2018-02-11T21:04:11.318Z,1.77
2018-02-11T21:06:40.439Z,2.40
2018-02-11T21:09:08.879Z,1.03
2018-02-11T21:11:37.315Z,0.77
2018-02-11T21:14:06.483Z,0.70
2018-02-11T21:16:34.865Z,1.30
2018-02-11T21:19:03.264Z,0.90
2018-02-11T21:21:32.498Z,0.87
2018-02-11T21:24:01.208Z,1.37
2018-02-11T21:26:29.586Z,1.60
2018-02-11T21:28:58.013Z,1.00
2018-02-11T21:31:26.417Z,1.00
2018-02-11T21:33:54.793Z,0.93
2018-02-11T21:36:23.208Z,0.60
2018-02-11T21:38:51.594Z,1.70
2018-02-11T21:41:20.124Z,1.47
2018-02-11T21:43:48.587Z,1.23
2018-02-11T21:46:17.708Z,1.20
2018-02-11T21:48:46.104Z,0.57
2018-02-11T21:51:14.673Z,1.83
2018-02-11T21:53:43.079Z,2.33
2018-02-11T21:56:11.471Z,1.90
2018-02-11T21:58:39.968Z,1.73
2018-02-11T22:01:09.120Z,2.10
2018-02-11T22:03:37.652Z,1.67
2018-02-11T22:06:06.261Z,2.90
2018-02-11T22:08:34.663Z,1.83
2018-02-11T22:11:03.050Z,3.60
2018-02-11T22:13:33.992Z,1.43
2018-02-11T22:16:02.481Z,2.63
2018-02-11T22:18:30.849Z,2.80
2018-02-11T22:20:59.256Z,2.83
2018-02-11T22:23:27.671Z,3.47
2018-02-11T22:25:56.031Z,3.43
2018-02-11T22:28:25.202Z,4.23
2018-02-11T22:30:53.604Z,1.50
2018-02-11T22:33:22.822Z,2.80
2018-02-11T22:35:52.245Z,3.90
2018-02-11T22:38:20.621Z,3.60
2018-02-11T22:40:49.012Z,3.77
2018-02-11T22:43:17.387Z,3.40
2018-02-11T22:45:45.851Z,4.10
2018-02-11T22:48:14.300Z,3.63
2018-02-11T22:50:43.532Z,4.63
2018-02-11T22:53:11.937Z,3.53
2018-02-11T22:55:40.497Z,2.33
2018-02-11T22:58:08.930Z,3.10
2018-02-11T23:00:38.134Z,3.00
2018-02-11T23:03:06.604Z,2.93
2018-02-11T23:05:35.738Z,2.73
2018-02-11T23:08:06.551Z,3.30
2018-02-11T23:10:34.998Z,2.53
2018-02-11T23:13:03.408Z,2.80
2018-02-11T23:15:32.575Z,2.80
2018-02-11T23:18:01.206Z,3.10
2018-02-11T23:20:29.618Z,2.50
2018-02-11T23:22:58.655Z,1.83
2018-02-11T23:25:27.352Z,2.53
2018-02-11T23:27:55.762Z,3.37
2018-02-11T23:30:24.122Z,2.37
2018-02-11T23:32:52.505Z,3.20
2018-02-11T23:35:22.279Z,2.28
2018-02-11T23:37:51.795Z,2.17
2018-02-11T23:40:20.933Z,2.60
2018-02-11T23:42:49.320Z,2.07
2018-02-11T23:45:17.687Z,2.63
2018-02-11T23:47:46.074Z,3.70
2018-02-11T23:50:14.648Z,3.37
2018-02-11T23:52:43.159Z,3.67
2018-02-11T23:55:11.523Z,3.47
2018-02-11T23:57:39.914Z,4.97
